メインページ
METAR-TAF:

METAR-TAF

空港 :

ダカール, セネガル

レオポール・セダール・サンゴール国際空港

緯度: 14-44N, 経度: 017-30W, 海抜: 27m

現時点の気象観測

当レポートは25分前の13:00(UTC)に作成
の風 11kt
気温 26°C
湿度 89%
気圧 1015 hPa
視程10km以上
高度900ftの千切れ雲あり
小雨

METAR: GOOY 251300Z 17011KT 9999 -RA BKN009 26/24 Q1015 NOSIG

時間: 13:25 (13:25 UTC)

予報

当レポートは1時間55分前の11:30(UTC)に作成
予報は25日の 12時(UTC)から 26日の 18時(UTC)まで有効
の風 8kt
視程10km以上
高度1000ftの雲は散在している
25日の 13時(UTC)から 25日の 19時(UTC)まで一時的に
視程: 4000m
高度1000ftの千切れ雲あり
高度2500ftの雲はほとんどない, 積乱雲.
激しい雷雨, 雨

TAF: GOOY 251130Z 2512/2618 18008KT 9999 SCT010 TEMPO 2513/2519 4000 TSRA BKN010 FEW025CB

4,000以上の空港の気象観測と天気予報(METAR報とTAF報)

利用可能な観測所は地図上に黄色い丸と赤い丸で示す。

丸の上にカーソルを重ねると観測所名を参照できる。

次にクリックすると気象観測と天気予報を参照できる。

マップの切り替え:黒色「×」印の緑ボタンをクリックして拡大、「-」印の緑ボタンをクリックして縮小、緑色の三角印をクリックして隣りの地図に切り替え


METAR-TAF: